Time;durP1;ratioP1;P1;durP2;ratioP2;P2;SDS_P1;SDS_P2;PMS_P1;PMS_P2;Temp;Humidity;BMP_temperature;BMP_pressure;BME280_temperature;BME280_humidity;BME280_pressure;Samples;Min_cycle;Max_cycle;Signal;HPM_P1;HPM_P2
2021/06/13 00:01:13;;;;;;;7.95;7.25;;;;;;;19.20;68.50;94408.39;802228;73;30517;-86
2021/06/13 00:16:10;;;;;;;9.75;7.72;;;;;;;19.17;68.18;94406.44;834416;71;29180;-86
2021/06/13 00:31:14;;;;;;;8.63;7.90;;;;;;;18.81;68.92;94405.00;834375;71;32301;-85
2021/06/13 00:46:17;;;;;;;7.60;7.00;;;;;;;18.91;68.80;94393.09;828121;71;31762;-84
2021/06/13 01:01:17;;;;;;;9.25;7.80;;;;;;;18.91;68.60;94378.46;828230;71;31682;-84
2021/06/13 01:16:33;;;;;;;10.23;9.30;;;;;;;18.76;68.62;94381.88;827897;71;31721;-88
2021/06/13 01:31:21;;;;;;;9.03;8.18;;;;;;;18.68;68.72;94369.52;835406;71;31688;-86
2021/06/13 01:46:21;;;;;;;8.68;7.90;;;;;;;18.70;68.55;94376.03;829884;70;31691;-87
2021/06/13 02:01:17;;;;;;;8.93;8.13;;;;;;;18.75;68.20;94358.48;827988;71;31714;-86
2021/06/13 02:16:10;;;;;;;9.78;8.85;;;;;;;18.66;68.30;94346.50;834286;71;30704;-86
2021/06/13 02:31:10;;;;;;;11.28;10.18;;;;;;;17.77;71.14;94343.02;828302;71;30317;-86
2021/06/13 02:46:15;;;;;;;10.78;9.75;;;;;;;17.59;71.52;94354.44;828772;71;32774;-83
2021/06/13 03:16:20;;;;;;;11.78;9.80;;;;;;;17.33;74.33;94353.48;827746;71;33157;-84
2021/06/13 03:31:16;;;;;;;12.55;10.95;;;;;;;17.42;74.35;94348.84;828023;71;32834;-83
2021/06/13 03:46:12;;;;;;;12.55;10.65;;;;;;;17.87;73.20;94351.85;829545;71;30239;-84
2021/06/13 04:01:19;;;;;;;14.58;11.25;;;;;;;18.22;71.95;94345.39;829434;70;32677;-86
2021/06/13 04:16:12;;;;;;;15.88;11.60;;;;;;;18.55;70.32;94337.71;834626;71;32095;-87
2021/06/13 04:31:12;;;;;;;19.52;15.90;;;;;;;18.13;71.13;94312.16;828532;71;30251;-87
2021/06/13 04:46:20;;;;;;;16.25;12.63;;;;;;;19.21;68.90;94328.81;829404;71;33169;-87
2021/06/13 05:01:10;;;;;;;14.70;12.47;;;;;;;20.37;65.75;94324.67;828735;71;29860;-89
2021/06/13 05:16:09;;;;;;;12.28;10.15;;;;;;;20.60;63.99;94309.50;829857;71;29861;-85
2021/06/13 05:31:09;;;;;;;11.18;10.10;;;;;;;20.65;63.62;94329.75;802367;73;30401;-86
2021/06/13 05:46:08;;;;;;;10.50;9.45;;;;;;;21.15;63.05;94323.11;829475;71;29677;-77
2021/06/13 06:01:09;;;;;;;12.50;10.72;;;;;;;20.83;63.46;94319.95;834007;71;29778;-78
2021/06/13 06:16:09;;;;;;;15.05;13.35;;;;;;;20.13;66.94;94333.74;828614;71;30418;-78
2021/06/13 06:31:15;;;;;;;19.50;13.78;;;;;;;21.85;66.60;94321.75;828478;71;32727;-83
2021/06/13 06:46:19;;;;;;;15.00;11.33;;;;;;;23.97;59.75;94310.09;827836;71;32806;-84
2021/06/13 07:01:30;;;;;;;9.90;9.10;;;;;;;26.06;51.20;94282.59;834292;71;32768;-82
2021/06/13 07:16:17;;;;;;;7.83;7.23;;;;;;;26.19;46.98;94272.30;833431;71;32812;-84
2021/06/13 07:31:08;;;;;;;9.47;8.70;;;;;;;26.38;46.09;94257.59;828565;71;29712;-79
2021/06/13 07:46:09;;;;;;;10.40;9.60;;;;;;;26.05;46.89;94271.63;834130;71;30315;-82
2021/06/13 08:01:16;;;;;;;9.20;8.40;;;;;;;26.07;47.49;94266.63;823158;71;32671;-83
2021/06/13 08:16:10;;;;;;;9.87;9.17;;;;;;;26.34;47.19;94277.03;829449;71;30270;-82
2021/06/13 08:31:15;;;;;;;13.60;12.50;;;;;;;26.04;46.68;94288.34;830228;70;32851;-81
2021/06/13 08:46:09;;;;;;;13.70;12.50;;;;;;;25.01;50.04;94296.84;828128;71;29381;-78
2021/06/13 09:16:15;;;;;;;12.80;11.80;;;;;;;23.90;53.32;94316.17;827611;71;31750;-77
2021/06/13 09:31:25;;;;;;;11.23;10.33;;;;;;;23.69;56.15;94337.51;827417;71;32239;-81
2021/06/13 09:46:12;;;;;;;10.40;9.40;;;;;;;23.25;59.48;94349.09;833955;71;29277;-77
2021/06/13 10:01:10;;;;;;;7.47;6.90;;;;;;;22.18;64.63;94336.24;823033;71;28761;-76
2021/06/13 10:16:11;;;;;;;7.60;7.00;;;;;;;21.63;68.62;94346.66;828030;71;29727;-77
2021/06/13 10:31:15;;;;;;;6.40;6.00;;;;;;;21.26;67.59;94359.28;828064;71;31586;-77
2021/06/13 10:46:15;;;;;;;6.30;5.85;;;;;;;21.04;69.79;94360.28;820646;71;29777;-79
2021/06/13 11:01:26;;;;;;;6.62;6.12;;;;;;;21.83;66.96;94354.73;820813;71;28686;-79
2021/06/13 11:16:11;;;;;;;6.10;5.60;;;;;;;22.55;63.45;94345.64;827640;71;28764;-77
2021/06/13 11:31:14;;;;;;;5.37;4.97;;;;;;;23.18;61.39;94333.77;820972;71;29111;-78
2021/06/13 11:46:12;;;;;;;4.60;4.30;;;;;;;22.22;61.18;94334.38;820372;71;31089;-76
2021/06/13 12:01:08;;;;;;;5.00;4.60;;;;;;;21.54;61.60;94338.92;827429;71;28754;-77
2021/06/13 12:16:18;;;;;;;5.17;4.80;;;;;;;21.21;61.10;94319.77;820892;71;29357;-75
2021/06/13 12:31:21;;;;;;;5.40;5.00;;;;;;;21.00;65.87;94318.89;827676;71;31764;-87
2021/06/13 12:46:17;;;;;;;6.40;5.90;;;;;;;22.39;57.20;94338.42;829055;71;32279;-83
2021/06/13 13:01:10;;;;;;;6.17;5.70;;;;;;;22.97;54.15;94306.23;821435;71;28764;-78
2021/06/13 13:16:25;;;;;;;6.33;5.83;;;;;;;23.13;52.83;94313.44;827310;71;28782;-81
2021/06/13 13:31:20;;;;;;;8.10;7.50;;;;;;;23.43;51.96;94303.69;820138;71;32337;-78
2021/06/13 13:46:29;;;;;;;7.53;7.03;;;;;;;22.98;51.58;94288.47;823703;70;29881;-81
2021/06/13 14:01:19;;;;;;;9.40;8.70;;;;;;;22.50;50.84;94267.07;821257;71;31893;-75
2021/06/13 14:16:18;;;;;;;8.87;8.27;;;;;;;22.74;49.71;94283.70;822793;71;32330;-80
2021/06/13 14:46:09;;;;;;;9.70;9.00;;;;;;;21.82;46.85;94305.13;814547;71;29269;-77
2021/06/13 15:16:09;;;;;;;9.98;9.18;;;;;;;20.73;48.85;94310.07;828582;71;29390;-77
2021/06/13 15:31:15;;;;;;;9.28;8.50;;;;;;;20.54;49.24;94296.23;827511;71;32210;-78
2021/06/13 15:46:17;;;;;;;9.30;8.60;;;;;;;20.24;50.85;94314.74;827561;71;31713;-77
2021/06/13 16:01:16;;;;;;;9.38;8.58;;;;;;;20.06;51.86;94326.39;833781;71;32628;-77
2021/06/13 16:16:17;;;;;;;8.40;7.80;;;;;;;20.29;52.83;94337.09;834025;71;32262;-77
2021/06/13 16:31:11;;;;;;;8.63;7.87;;;;;;;20.09;53.61;94350.98;829258;71;30349;-78
2021/06/13 16:46:11;;;;;;;8.88;7.95;;;;;;;19.86;54.00;94352.26;834654;71;30380;-78
2021/06/13 17:01:11;;;;;;;7.90;7.30;;;;;;;19.61;53.04;94362.38;827898;71;30388;-77
2021/06/13 17:16:10;;;;;;;7.75;7.05;;;;;;;19.45;52.35;94373.06;828227;71;28737;-78
2021/06/13 17:31:16;;;;;;;7.47;6.80;;;;;;;19.33;51.81;94367.84;828036;71;31846;-79
2021/06/13 17:46:14;;;;;;;7.42;6.70;;;;;;;19.26;51.72;94365.80;827358;71;32258;-79
2021/06/13 18:01:09;;;;;;;7.03;6.47;;;;;;;19.35;53.25;94385.00;828310;71;29308;-80
2021/06/13 18:16:15;;;;;;;6.70;6.20;;;;;;;19.05;56.12;94394.56;834660;71;33229;-78
2021/06/13 18:31:15;;;;;;;5.90;5.40;;;;;;;18.78;55.53;94396.36;827417;71;32761;-78
2021/06/13 18:46:09;;;;;;;5.12;4.67;;;;;;;18.46;53.17;94434.06;827909;71;29745;-77
2021/06/13 19:01:16;;;;;;;4.40;4.03;;;;;;;18.27;51.05;94440.02;827240;71;32715;-79
2021/06/13 19:16:11;;;;;;;4.55;3.50;;;;;;;18.17;49.68;94455.88;833831;71;30264;-80
2021/06/13 19:31:14;;;;;;;3.70;3.45;;;;;;;18.14;49.25;94466.39;833702;71;33227;-76
2021/06/13 19:46:13;;;;;;;4.25;3.85;;;;;;;18.12;49.28;94477.90;828218;71;32735;-77
2021/06/13 20:01:18;;;;;;;3.35;3.10;;;;;;;18.07;49.23;94475.48;827382;71;33229;-77
2021/06/13 20:16:09;;;;;;;3.62;3.40;;;;;;;17.95;49.11;94483.69;826259;71;30094;-76
2021/06/13 20:31:08;;;;;;;4.05;3.75;;;;;;;17.85;48.98;94469.55;828328;71;29729;-76
2021/06/13 20:46:08;;;;;;;6.35;3.45;;;;;;;17.72;49.12;94453.38;828396;71;30177;-76
2021/06/13 21:16:08;;;;;;;4.08;3.52;;;;;;;21.29;48.37;94450.63;822811;71;29967;-77
2021/06/13 21:31:15;;;;;;;3.45;3.12;;;;;;;21.75;44.89;94439.92;820290;71;33269;-75
2021/06/13 21:46:19;;;;;;;3.63;3.13;;;;;;;21.92;43.81;94423.95;820164;71;32807;-76
2021/06/13 22:01:16;;;;;;;3.20;3.00;;;;;;;22.12;42.76;94432.03;829339;71;32685;-78
2021/06/13 22:16:21;;;;;;;3.57;2.87;;;;;;;22.08;42.50;94417.86;828726;71;32764;-77
2021/06/13 22:31:08;;;;;;;3.40;3.13;;;;;;;22.05;42.31;94415.13;828513;71;29750;-76
2021/06/13 22:46:14;;;;;;;3.67;3.37;;;;;;;22.15;42.04;94409.16;834568;71;32762;-77
2021/06/13 23:01:10;;;;;;;5.47;4.97;;;;;;;22.12;42.30;94407.19;828198;71;30720;-77
2021/06/13 23:16:15;;;;;;;6.00;4.00;;;;;;;22.05;42.06;94403.11;827381;71;32723;-76
2021/06/13 23:31:09;;;;;;;3.60;3.30;;;;;;;22.17;42.18;94398.29;828239;71;30849;-76
2021/06/13 23:46:20;;;;;;;2.87;2.67;;;;;;;22.09;42.13;94379.30;829259;70;32971;-81
